Time;durP1;ratioP1;P1;durP2;ratioP2;P2;SDS_P1;SDS_P2;PMS_P1;PMS_P2;Temp;Humidity;BMP_temperature;BMP_pressure;BME280_temperature;BME280_humidity;BME280_pressure;Samples;Min_cycle;Max_cycle;Signal;HPM_P1;HPM_P2
2022/03/06 00:01:12;;;;;;;27.48;20.17;;;;;;;;;;10274683;28;20068;-57
2022/03/06 00:06:10;;;;;;;27.17;19.48;;;;;;;;;;10271145;28;20068;-55
2022/03/06 00:11:10;;;;;;;30.95;20.45;;;;;;;;;;10271270;28;20072;-54
2022/03/06 00:16:09;;;;;;;23.77;17.63;;;;;;;;;;10268845;28;20072;-54
2022/03/06 00:21:09;;;;;;;26.95;18.75;;;;;;;;;;10265051;28;20087;-55
2022/03/06 00:26:07;;;;;;;26.38;19.30;;;;;;;;;;10279418;28;20494;-55
2022/03/06 00:31:07;;;;;;;25.67;19.30;;;;;;;;;;10269488;28;20076;-54
2022/03/06 00:36:06;;;;;;;23.17;19.10;;;;;;;;;;10273534;28;20083;-50
2022/03/06 00:41:04;;;;;;;24.02;17.17;;;;;;;;;;10274635;28;20044;-53
2022/03/06 00:46:02;;;;;;;23.08;17.33;;;;;;;;;;10309507;28;20068;-53
2022/03/06 00:51:02;;;;;;;20.83;16.40;;;;;;;;;;10304752;28;20089;-56
2022/03/06 00:56:02;;;;;;;21.23;16.20;;;;;;;;;;10280378;28;20080;-55
2022/03/06 01:01:00;;;;;;;21.48;15.23;;;;;;;;;;10279707;28;20083;-53
2022/03/06 01:05:58;;;;;;;20.45;14.65;;;;;;;;;;10278162;28;20067;-54
2022/03/06 01:10:58;;;;;;;20.90;16.30;;;;;;;;;;10280635;28;20076;-56
2022/03/06 01:15:57;;;;;;;20.17;15.23;;;;;;;;;;10281568;28;20064;-53
2022/03/06 01:20:55;;;;;;;19.42;14.90;;;;;;;;;;10315978;28;20071;-55
2022/03/06 01:25:53;;;;;;;17.40;13.02;;;;;;;;;;10284041;28;20083;-56
2022/03/06 01:30:53;;;;;;;17.30;13.32;;;;;;;;;;10277760;28;20080;-54
2022/03/06 01:35:51;;;;;;;15.23;11.93;;;;;;;;;;10279021;28;20084;-55
2022/03/06 01:40:50;;;;;;;16.65;12.05;;;;;;;;;;10278576;28;20076;-54
2022/03/06 01:45:48;;;;;;;18.35;13.38;;;;;;;;;;10278031;28;20068;-52
2022/03/06 01:50:48;;;;;;;15.35;10.90;;;;;;;;;;10277507;28;20076;-55
2022/03/06 01:55:46;;;;;;;14.45;11.60;;;;;;;;;;10277814;28;20073;-54
2022/03/06 02:00:48;;;;;;;15.27;10.93;;;;;;;;;;10283950;28;20254;-56
2022/03/06 02:05:48;;;;;;;17.75;12.18;;;;;;;;;;10308613;28;20065;-54
2022/03/06 02:10:47;;;;;;;14.07;11.38;;;;;;;;;;10309214;28;20080;-54
2022/03/06 02:15:46;;;;;;;15.32;10.95;;;;;;;;;;10272914;28;20060;-54
2022/03/06 02:20:44;;;;;;;17.30;11.27;;;;;;;;;;10276908;28;20098;-55
2022/03/06 02:25:44;;;;;;;14.98;11.82;;;;;;;;;;10276906;28;20068;-51
2022/03/06 02:30:43;;;;;;;14.80;11.43;;;;;;;;;;10276822;28;20079;-55
2022/03/06 02:35:41;;;;;;;14.50;10.32;;;;;;;;;;10275357;28;20175;-55
2022/03/06 02:40:42;;;;;;;14.23;11.05;;;;;;;;;;10273819;28;20125;-54
2022/03/06 02:45:43;;;;;;;15.20;10.82;;;;;;;;;;10276122;28;20091;-55
2022/03/06 02:50:41;;;;;;;12.68;10.23;;;;;;;;;;10275853;28;20080;-53
2022/03/06 02:55:40;;;;;;;12.00;9.48;;;;;;;;;;10275006;28;20098;-54
2022/03/06 03:00:38;;;;;;;12.38;9.63;;;;;;;;;;10278067;28;20080;-56
2022/03/06 03:05:38;;;;;;;13.90;10.25;;;;;;;;;;10274643;28;20079;-55
2022/03/06 03:10:36;;;;;;;17.00;11.30;;;;;;;;;;10275125;28;20079;-54
2022/03/06 03:15:35;;;;;;;15.15;9.65;;;;;;;;;;10273776;28;20072;-54
2022/03/06 03:20:33;;;;;;;10.98;9.07;;;;;;;;;;10273777;28;20080;-53
2022/03/06 03:25:33;;;;;;;11.32;9.43;;;;;;;;;;10282328;28;20057;-55
2022/03/06 03:30:31;;;;;;;16.17;11.88;;;;;;;;;;10274305;28;20133;-55
2022/03/06 03:35:30;;;;;;;22.25;14.60;;;;;;;;;;10265419;28;20100;-53
2022/03/06 03:40:28;;;;;;;16.77;10.80;;;;;;;;;;10274394;28;20467;-53
2022/03/06 03:45:27;;;;;;;15.00;10.75;;;;;;;;;;10273387;28;20061;-53
2022/03/06 03:50:26;;;;;;;21.15;13.85;;;;;;;;;;10273492;28;20076;-53
2022/03/06 03:55:24;;;;;;;20.48;14.45;;;;;;;;;;10273487;28;20084;-55
2022/03/06 04:00:23;;;;;;;17.05;11.50;;;;;;;;;;10273588;28;20095;-54
2022/03/06 04:05:22;;;;;;;16.33;10.88;;;;;;;;;;10272377;28;20061;-55
2022/03/06 04:10:20;;;;;;;20.35;14.52;;;;;;;;;;10307958;28;20064;-55
2022/03/06 04:15:19;;;;;;;19.33;12.30;;;;;;;;;;10308089;28;20072;-55
2022/03/06 04:20:18;;;;;;;17.42;12.98;;;;;;;;;;10308714;28;20091;-54
2022/03/06 04:25:18;;;;;;;15.02;10.95;;;;;;;;;;10258594;28;20084;-54
2022/03/06 04:30:16;;;;;;;17.33;13.18;;;;;;;;;;10279799;28;20442;-55
2022/03/06 04:35:15;;;;;;;20.35;12.95;;;;;;;;;;10280605;28;20068;-56
2022/03/06 04:40:13;;;;;;;18.98;12.60;;;;;;;;;;10280072;28;20536;-54
2022/03/06 04:45:13;;;;;;;15.75;11.77;;;;;;;;;;10280226;28;20114;-55
2022/03/06 04:50:11;;;;;;;14.50;11.20;;;;;;;;;;10270003;28;20068;-54
2022/03/06 04:55:09;;;;;;;18.38;12.13;;;;;;;;;;10280232;28;20088;-55
2022/03/06 05:00:08;;;;;;;16.10;12.35;;;;;;;;;;10280458;28;20076;-54
2022/03/06 05:05:09;;;;;;;15.73;11.45;;;;;;;;;;10314753;28;20056;-53
2022/03/06 05:10:09;;;;;;;18.25;11.20;;;;;;;;;;10273176;28;20049;-50
2022/03/06 05:15:09;;;;;;;15.60;11.90;;;;;;;;;;10311389;28;20065;-55
2022/03/06 05:20:10;;;;;;;20.73;13.32;;;;;;;;;;10270576;28;20079;-54
2022/03/06 05:25:09;;;;;;;21.33;15.07;;;;;;;;;;10261989;28;20085;-55
2022/03/06 05:30:09;;;;;;;15.43;12.23;;;;;;;;;;10255953;28;20084;-55
2022/03/06 05:35:10;;;;;;;21.52;13.68;;;;;;;;;;10266533;28;20076;-52
2022/03/06 05:40:09;;;;;;;20.90;13.85;;;;;;;;;;10258658;28;20084;-55
2022/03/06 05:45:07;;;;;;;21.02;13.90;;;;;;;;;;10274884;28;20107;-55
2022/03/06 05:50:07;;;;;;;98.10;46.63;;;;;;;;;;10269115;28;20072;-55
2022/03/06 05:55:07;;;;;;;20.70;14.38;;;;;;;;;;10270768;28;20075;-56
2022/03/06 06:00:08;;;;;;;20.20;13.40;;;;;;;;;;10276812;28;20080;-55
2022/03/06 06:05:07;;;;;;;21.15;12.73;;;;;;;;;;10277336;28;20115;-52
2022/03/06 06:10:08;;;;;;;18.63;14.00;;;;;;;;;;10265673;28;20079;-55
2022/03/06 06:15:07;;;;;;;22.30;14.43;;;;;;;;;;10259643;28;20458;-56
2022/03/06 06:20:07;;;;;;;19.25;14.35;;;;;;;;;;10263339;28;20477;-55
2022/03/06 06:25:07;;;;;;;23.80;17.08;;;;;;;;;;10257373;28;20080;-53
2022/03/06 06:30:06;;;;;;;23.13;17.05;;;;;;;;;;10275289;28;20068;-53
2022/03/06 06:35:05;;;;;;;25.95;18.20;;;;;;;;;;10260003;28;20077;-52
2022/03/06 06:40:03;;;;;;;23.63;16.75;;;;;;;;;;10255809;28;20079;-56
2022/03/06 06:45:03;;;;;;;21.67;15.93;;;;;;;;;;10259721;28;20068;-57
2022/03/06 06:50:02;;;;;;;25.95;18.30;;;;;;;;;;10248665;28;20514;-54
2022/03/06 06:55:00;;;;;;;21.48;16.38;;;;;;;;;;10252057;28;20088;-56
2022/03/06 06:59:59;;;;;;;19.50;14.15;;;;;;;;;;10253049;28;20080;-57
2022/03/06 07:04:59;;;;;;;31.35;19.75;;;;;;;;;;10249252;28;20108;-56
2022/03/06 07:09:57;;;;;;;18.48;11.75;;;;;;;;;;10257799;28;20088;-57
2022/03/06 07:14:59;;;;;;;16.13;12.50;;;;;;;;;;10264765;28;20073;-54
2022/03/06 07:19:59;;;;;;;21.27;13.55;;;;;;;;;;10259095;28;20488;-55
2022/03/06 07:24:57;;;;;;;29.40;17.20;;;;;;;;;;10262139;28;20080;-53
2022/03/06 07:29:56;;;;;;;34.97;21.67;;;;;;;;;;10250668;28;20065;-56
2022/03/06 07:34:54;;;;;;;23.10;13.57;;;;;;;;;;10262438;28;20529;-56
2022/03/06 07:39:54;;;;;;;29.05;16.58;;;;;;;;;;10263056;28;20285;-56
2022/03/06 07:44:52;;;;;;;36.28;19.48;;;;;;;;;;10267349;28;20072;-54
2022/03/06 07:49:50;;;;;;;38.17;20.20;;;;;;;;;;10263781;28;20076;-56
2022/03/06 07:54:48;;;;;;;30.50;13.85;;;;;;;;;;10263210;28;20072;-55
2022/03/06 07:59:48;;;;;;;16.45;12.20;;;;;;;;;;10264705;28;20083;-56
2022/03/06 08:04:46;;;;;;;15.52;11.02;;;;;;;;;;10267862;28;20064;-54
2022/03/06 08:09:45;;;;;;;41.03;18.92;;;;;;;;;;10267492;28;20178;-55
2022/03/06 08:14:43;;;;;;;13.57;10.15;;;;;;;;;;10268191;28;20362;-53
2022/03/06 08:19:43;;;;;;;14.70;11.52;;;;;;;;;;10267989;28;20111;-57
2022/03/06 08:24:41;;;;;;;17.13;11.50;;;;;;;;;;10267838;28;20072;-55
2022/03/06 08:29:39;;;;;;;21.83;13.07;;;;;;;;;;10267099;28;20410;-52
2022/03/06 08:34:38;;;;;;;17.63;11.25;;;;;;;;;;10267719;28;20072;-57
2022/03/06 08:39:37;;;;;;;34.40;18.38;;;;;;;;;;10263214;28;20080;-56
2022/03/06 08:44:35;;;;;;;20.13;13.60;;;;;;;;;;10266456;28;20076;-55
2022/03/06 08:49:34;;;;;;;17.00;11.85;;;;;;;;;;10266716;28;20459;-52
2022/03/06 08:54:32;;;;;;;12.35;9.68;;;;;;;;;;10267905;28;20088;-55
2022/03/06 08:59:32;;;;;;;18.58;12.20;;;;;;;;;;10265990;28;20076;-54
2022/03/06 09:04:32;;;;;;;13.70;10.52;;;;;;;;;;10266821;28;20068;-56
2022/03/06 09:09:31;;;;;;;11.57;9.38;;;;;;;;;;10265373;28;20076;-55
2022/03/06 09:14:29;;;;;;;15.65;9.55;;;;;;;;;;10264597;28;20076;-56
2022/03/06 09:19:29;;;;;;;13.30;10.23;;;;;;;;;;10286676;28;20076;-56
2022/03/06 09:24:27;;;;;;;20.90;12.93;;;;;;;;;;10285860;28;20065;-55
2022/03/06 09:29:26;;;;;;;23.85;14.07;;;;;;;;;;10268688;28;20079;-54
2022/03/06 09:34:24;;;;;;;14.32;10.80;;;;;;;;;;10266983;28;20068;-51
2022/03/06 09:39:24;;;;;;;17.83;10.68;;;;;;;;;;10272599;28;20045;-55
2022/03/06 09:44:24;;;;;;;13.07;11.13;;;;;;;;;;10267410;28;20411;-54
2022/03/06 09:49:23;;;;;;;11.70;10.05;;;;;;;;;;10272308;28;20056;-56
2022/03/06 09:54:21;;;;;;;15.23;9.93;;;;;;;;;;10266183;28;20072;-55
2022/03/06 09:59:21;;;;;;;28.25;21.13;;;;;;;;;;10265791;28;20080;-55
2022/03/06 10:04:24;;;;;;;16.95;12.35;;;;;;;;;;10253399;28;20465;-53
2022/03/06 10:09:23;;;;;;;33.95;23.27;;;;;;;;;;10251796;28;20091;-53
2022/03/06 10:14:35;;;;;;;37.55;22.13;;;;;;;;;;10253022;28;20068;-56
2022/03/06 10:19:47;;;;;;;77.07;55.05;;;;;;;;;;10249363;28;20084;-55
2022/03/06 10:24:49;;;;;;;26.52;19.42;;;;;;;;;;10251228;28;20076;-53
2022/03/06 10:29:48;;;;;;;109.47;66.40;;;;;;;;;;10258128;28;20490;-57
2022/03/06 10:34:47;;;;;;;14.80;10.10;;;;;;;;;;10281789;28;20071;-55
2022/03/06 10:39:45;;;;;;;16.33;9.48;;;;;;;;;;10280789;28;20072;-56
2022/03/06 10:44:45;;;;;;;17.65;15.10;;;;;;;;;;10267706;28;20119;-55
2022/03/06 10:50:01;;;;;;;12.47;8.93;;;;;;;;;;10270641;28;20069;-56
2022/03/06 10:54:59;;;;;;;14.10;11.60;;;;;;;;;;10253042;28;20072;-54
2022/03/06 10:59:58;;;;;;;16.52;12.25;;;;;;;;;;10249702;28;20123;-56
2022/03/06 11:04:58;;;;;;;17.17;11.40;;;;;;;;;;10248773;28;20076;-53
2022/03/06 11:09:58;;;;;;;17.83;11.65;;;;;;;;;;10253460;28;20454;-56
2022/03/06 11:14:58;;;;;;;17.17;12.93;;;;;;;;;;10257799;28;20493;-54
2022/03/06 11:19:57;;;;;;;17.20;12.88;;;;;;;;;;10279259;28;20481;-55
2022/03/06 11:24:58;;;;;;;14.65;9.32;;;;;;;;;;10252493;28;20057;-56
2022/03/06 11:30:18;;;;;;;19.73;10.82;;;;;;;;;;10258050;28;20077;-55
2022/03/06 11:35:19;;;;;;;18.88;12.90;;;;;;;;;;10257220;28;20502;-57
2022/03/06 11:40:35;;;;;;;19.90;12.65;;;;;;;;;;10270524;28;20077;-56
2022/03/06 11:45:33;;;;;;;;;;;;;;;;;;10246516;28;20084;-52
2022/03/06 11:50:33;;;;;;;14.93;10.30;;;;;;;;;;10254786;28;20408;-58
2022/03/06 11:55:32;;;;;;;23.77;18.17;;;;;;;;;;10262490;28;20083;-57
2022/03/06 12:00:32;;;;;;;39.25;20.58;;;;;;;;;;10251558;28;20072;-55
2022/03/06 12:05:46;;;;;;;36.25;21.58;;;;;;;;;;10251868;28;20076;-56
2022/03/06 12:10:45;;;;;;;14.85;10.85;;;;;;;;;;10258882;28;20436;-55
2022/03/06 12:15:43;;;;;;;23.77;17.73;;;;;;;;;;10260206;28;20111;-55
2022/03/06 12:20:42;;;;;;;25.10;19.08;;;;;;;;;;10255288;28;20085;-54
2022/03/06 12:25:50;;;;;;;21.10;15.02;;;;;;;;;;10246757;28;20069;-56
2022/03/06 12:30:49;;;;;;;11.00;9.48;;;;;;;;;;10246438;28;20061;-53
2022/03/06 12:35:47;;;;;;;17.40;12.38;;;;;;;;;;10250852;28;20061;-54
2022/03/06 12:40:47;;;;;;;19.27;10.68;;;;;;;;;;10246665;28;20073;-54
2022/03/06 12:45:46;;;;;;;16.02;10.10;;;;;;;;;;10246929;28;20076;-56
2022/03/06 12:50:44;;;;;;;21.67;15.15;;;;;;;;;;10257415;28;20079;-55
2022/03/06 12:55:43;;;;;;;32.05;26.63;;;;;;;;;;10275962;28;20071;-56
2022/03/06 13:00:42;;;;;;;15.65;13.07;;;;;;;;;;10253937;28;20087;-50
2022/03/06 13:05:41;;;;;;;23.70;15.82;;;;;;;;;;10249905;28;20052;-54
2022/03/06 13:10:39;;;;;;;25.38;15.65;;;;;;;;;;10250021;28;20385;-53
2022/03/06 13:15:38;;;;;;;14.98;13.13;;;;;;;;;;10253343;28;20060;-53
2022/03/06 13:20:39;;;;;;;27.50;17.55;;;;;;;;;;10253884;28;20979;-53
2022/03/06 13:25:37;;;;;;;23.67;15.57;;;;;;;;;;10253910;28;20510;-56
2022/03/06 13:30:36;;;;;;;26.27;15.93;;;;;;;;;;10263477;28;20068;-55
2022/03/06 13:35:36;;;;;;;14.57;12.25;;;;;;;;;;10247565;28;20175;-51
2022/03/06 13:40:36;;;;;;;35.72;24.45;;;;;;;;;;10256897;28;20073;-50
2022/03/06 13:45:35;;;;;;;30.50;24.58;;;;;;;;;;10256233;28;20076;-53
2022/03/06 13:50:35;;;;;;;20.25;14.95;;;;;;;;;;10262027;28;20057;-53
2022/03/06 13:55:35;;;;;;;15.65;12.50;;;;;;;;;;10257323;28;20450;-56
2022/03/06 14:00:36;;;;;;;31.50;19.23;;;;;;;;;;10280701;28;20103;-55
2022/03/06 14:05:35;;;;;;;47.97;23.40;;;;;;;;;;10262302;28;20068;-54
2022/03/06 14:10:39;;;;;;;25.67;19.10;;;;;;;;;;10256955;28;20071;-55
2022/03/06 14:15:39;;;;;;;16.23;11.45;;;;;;;;;;10252153;28;20491;-56
2022/03/06 14:20:44;;;;;;;21.25;16.25;;;;;;;;;;10263015;28;20072;-55
2022/03/06 14:25:42;;;;;;;;;;;;;;;;;;10264081;28;20081;-53
2022/03/06 14:30:42;;;;;;;20.70;14.32;;;;;;;;;;10263094;28;19960;-52
2022/03/06 14:35:41;;;;;;;15.32;12.93;;;;;;;;;;10249883;28;20077;-56
2022/03/06 14:40:39;;;;;;;21.33;15.05;;;;;;;;;;10247386;28;20081;-53
2022/03/06 14:45:37;;;;;;;22.58;17.45;;;;;;;;;;10260027;28;20069;-56
2022/03/06 14:50:37;;;;;;;42.60;28.48;;;;;;;;;;10254393;28;20103;-51
2022/03/06 14:55:36;;;;;;;24.98;17.92;;;;;;;;;;10250217;28;20080;-54
2022/03/06 15:00:55;;;;;;;15.25;12.95;;;;;;;;;;10259594;28;20064;-54
2022/03/06 15:05:55;;;;;;;30.40;23.98;;;;;;;;;;10252216;28;20461;-55
2022/03/06 15:11:13;;;;;;;28.40;19.58;;;;;;;;;;10261238;28;20594;-55
2022/03/06 15:16:12;;;;;;;39.65;24.30;;;;;;;;;;10254331;28;20069;-54
2022/03/06 15:21:12;;;;;;;15.52;12.70;;;;;;;;;;10257636;28;20077;-52
2022/03/06 15:26:11;;;;;;;14.40;12.43;;;;;;;;;;10266934;28;20076;-55
2022/03/06 15:31:12;;;;;;;32.97;20.70;;;;;;;;;;10261383;28;20085;-55
2022/03/06 15:36:10;;;;;;;19.95;15.73;;;;;;;;;;10264305;28;20447;-54
2022/03/06 15:41:10;;;;;;;17.48;12.27;;;;;;;;;;10268679;28;20074;-54
2022/03/06 15:46:08;;;;;;;19.80;15.05;;;;;;;;;;10268191;28;20073;-55
2022/03/06 15:51:07;;;;;;;17.17;14.05;;;;;;;;;;10267694;28;20073;-51
2022/03/06 15:56:05;;;;;;;17.45;13.18;;;;;;;;;;10266307;28;20095;-57
2022/03/06 16:01:06;;;;;;;18.27;12.88;;;;;;;;;;10255816;28;20470;-54
2022/03/06 16:06:06;;;;;;;15.93;13.88;;;;;;;;;;10261731;28;20053;-56
2022/03/06 16:11:05;;;;;;;19.02;14.80;;;;;;;;;;10265724;28;20538;-56
2022/03/06 16:16:05;;;;;;;15.35;12.68;;;;;;;;;;10268923;28;20513;-56
2022/03/06 16:21:03;;;;;;;28.65;21.98;;;;;;;;;;10266476;28;20080;-55
2022/03/06 16:26:03;;;;;;;23.30;17.65;;;;;;;;;;10270539;28;20049;-56
2022/03/06 16:31:02;;;;;;;47.50;31.40;;;;;;;;;;10277094;28;20080;-52
2022/03/06 16:36:01;;;;;;;25.33;16.60;;;;;;;;;;10273336;28;20072;-54
2022/03/06 16:41:00;;;;;;;46.67;31.13;;;;;;;;;;10275506;28;20079;-54
2022/03/06 16:45:59;;;;;;;72.25;43.78;;;;;;;;;;10275648;28;20076;-56
2022/03/06 16:50:58;;;;;;;27.70;21.48;;;;;;;;;;10273998;28;20084;-54
2022/03/06 16:55:58;;;;;;;33.80;23.50;;;;;;;;;;10278466;28;20036;-55
2022/03/06 17:00:56;;;;;;;30.67;23.23;;;;;;;;;;10279822;28;20477;-56
2022/03/06 17:05:55;;;;;;;23.17;18.33;;;;;;;;;;10278948;28;20080;-52
2022/03/06 17:10:53;;;;;;;50.95;30.60;;;;;;;;;;10279492;28;20075;-55
2022/03/06 17:15:53;;;;;;;29.63;22.45;;;;;;;;;;10274277;28;20371;-55
2022/03/06 17:20:51;;;;;;;24.88;18.65;;;;;;;;;;10273826;28;20075;-55
2022/03/06 17:25:50;;;;;;;33.45;22.23;;;;;;;;;;10271204;28;20400;-55
2022/03/06 17:30:48;;;;;;;35.05;22.48;;;;;;;;;;10273706;28;20073;-56
2022/03/06 17:35:48;;;;;;;25.17;19.85;;;;;;;;;;10272575;28;20080;-55
2022/03/06 17:40:46;;;;;;;52.08;32.40;;;;;;;;;;10272681;28;20076;-56
2022/03/06 17:45:44;;;;;;;39.50;27.17;;;;;;;;;;10277016;28;20076;-56
2022/03/06 17:50:43;;;;;;;26.38;19.80;;;;;;;;;;10277566;28;20475;-55
2022/03/06 17:55:43;;;;;;;23.88;19.30;;;;;;;;;;10276869;28;20497;-55
2022/03/06 18:00:44;;;;;;;24.67;19.65;;;;;;;;;;10274518;28;20072;-55
2022/03/06 18:05:44;;;;;;;35.90;26.35;;;;;;;;;;10272452;28;20073;-57
2022/03/06 18:10:45;;;;;;;32.00;25.65;;;;;;;;;;10274514;28;20513;-56
2022/03/06 18:15:44;;;;;;;28.58;21.75;;;;;;;;;;10271871;28;20528;-56
2022/03/06 18:21:02;;;;;;;28.83;21.50;;;;;;;;;;10272779;28;20029;-57
2022/03/06 18:26:05;;;;;;;34.88;25.67;;;;;;;;;;10271651;28;20079;-54
2022/03/06 18:31:20;;;;;;;36.78;26.67;;;;;;;;;;10271860;28;20080;-55
2022/03/06 18:36:18;;;;;;;35.07;25.23;;;;;;;;;;10272211;28;20073;-56
2022/03/06 18:41:18;;;;;;;30.27;22.23;;;;;;;;;;10270776;28;20080;-56
2022/03/06 18:46:16;;;;;;;27.98;19.55;;;;;;;;;;10269844;28;20092;-56
2022/03/06 18:51:14;;;;;;;26.83;19.67;;;;;;;;;;10270196;28;20084;-55
2022/03/06 18:56:17;;;;;;;26.15;20.67;;;;;;;;;;10272438;28;20413;-56
2022/03/06 19:01:18;;;;;;;25.50;21.23;;;;;;;;;;10267441;28;20083;-57
2022/03/06 19:06:16;;;;;;;38.88;27.85;;;;;;;;;;10271275;28;20077;-51
2022/03/06 19:11:32;;;;;;;98.30;51.53;;;;;;;;;;10274593;28;20069;-53
2022/03/06 19:16:33;;;;;;;33.55;26.35;;;;;;;;;;10273803;28;20080;-54
2022/03/06 19:21:32;;;;;;;38.47;32.90;;;;;;;;;;10271547;28;20068;-53
2022/03/06 19:26:30;;;;;;;32.70;27.17;;;;;;;;;;10272895;28;20083;-53
2022/03/06 19:31:32;;;;;;;57.75;37.50;;;;;;;;;;10274278;28;20045;-55
2022/03/06 19:36:32;;;;;;;79.25;44.90;;;;;;;;;;10273251;28;20112;-53
2022/03/06 19:41:31;;;;;;;34.92;26.67;;;;;;;;;;10270212;28;20079;-54
2022/03/06 19:46:29;;;;;;;31.67;24.65;;;;;;;;;;10269207;28;20104;-54
2022/03/06 19:51:27;;;;;;;27.67;22.67;;;;;;;;;;10268248;28;20125;-55
2022/03/06 19:56:27;;;;;;;24.85;21.98;;;;;;;;;;10268651;28;20088;-55
2022/03/06 20:01:25;;;;;;;28.85;22.17;;;;;;;;;;10269488;28;21722;-56
2022/03/06 20:06:24;;;;;;;34.53;25.20;;;;;;;;;;10267866;28;20514;-55
2022/03/06 20:11:22;;;;;;;34.70;25.70;;;;;;;;;;10269972;28;20080;-54
2022/03/06 20:16:23;;;;;;;27.88;21.90;;;;;;;;;;10269244;28;20075;-55
2022/03/06 20:21:23;;;;;;;43.95;25.83;;;;;;;;;;10264800;28;20056;-54
2022/03/06 20:26:24;;;;;;;30.83;23.23;;;;;;;;;;10268823;28;20069;-54
2022/03/06 20:31:24;;;;;;;37.85;25.80;;;;;;;;;;10268371;28;20075;-53
2022/03/06 20:36:22;;;;;;;40.08;30.70;;;;;;;;;;10268374;28;20502;-55
2022/03/06 20:41:21;;;;;;;32.88;24.27;;;;;;;;;;10268099;28;20072;-53
2022/03/06 20:46:24;;;;;;;33.35;25.65;;;;;;;;;;10265585;28;20504;-52
2022/03/06 20:51:25;;;;;;;32.42;24.63;;;;;;;;;;10270379;28;20081;-55
2022/03/06 20:56:24;;;;;;;30.05;23.48;;;;;;;;;;10263543;28;20490;-54
2022/03/06 21:01:22;;;;;;;26.73;22.92;;;;;;;;;;10246461;28;20065;-56
2022/03/06 21:06:21;;;;;;;27.23;21.10;;;;;;;;;;10247700;28;20115;-55
2022/03/06 21:11:20;;;;;;;24.80;20.08;;;;;;;;;;10257197;28;20502;-55
2022/03/06 21:16:18;;;;;;;31.52;24.30;;;;;;;;;;10281198;28;20064;-56
2022/03/06 21:21:17;;;;;;;35.53;26.45;;;;;;;;;;10274011;28;20056;-55
2022/03/06 21:26:17;;;;;;;26.38;18.25;;;;;;;;;;10254209;28;20077;-52
2022/03/06 21:31:16;;;;;;;21.25;17.42;;;;;;;;;;10252683;28;20061;-55
2022/03/06 21:36:17;;;;;;;24.40;19.52;;;;;;;;;;10258207;28;20084;-54
2022/03/06 21:41:15;;;;;;;23.40;16.90;;;;;;;;;;10252536;28;20064;-55
2022/03/06 21:46:13;;;;;;;18.88;15.55;;;;;;;;;;10249499;28;20080;-51
2022/03/06 21:51:13;;;;;;;42.42;36.55;;;;;;;;;;10253450;28;20517;-53
2022/03/06 21:56:12;;;;;;;21.20;17.35;;;;;;;;;;10257738;28;20092;-54
2022/03/06 22:01:10;;;;;;;23.60;20.52;;;;;;;;;;10251429;28;20156;-54
2022/03/06 22:06:09;;;;;;;21.70;17.75;;;;;;;;;;10249498;28;20079;-55
2022/03/06 22:11:09;;;;;;;22.75;19.27;;;;;;;;;;10272347;28;20453;-52
2022/03/06 22:16:07;;;;;;;26.10;19.95;;;;;;;;;;10271677;28;20168;-55
2022/03/06 22:21:05;;;;;;;32.38;23.40;;;;;;;;;;10273065;28;20141;-55
2022/03/06 22:26:04;;;;;;;23.88;20.17;;;;;;;;;;10272203;28;20080;-55
2022/03/06 22:31:03;;;;;;;24.92;21.50;;;;;;;;;;10271334;28;20048;-55
2022/03/06 22:36:02;;;;;;;23.42;20.45;;;;;;;;;;10270617;28;20073;-54
2022/03/06 22:41:04;;;;;;;29.83;24.98;;;;;;;;;;10272178;28;20084;-56
2022/03/06 22:46:06;;;;;;;28.23;23.60;;;;;;;;;;10271811;28;20079;-55
2022/03/06 22:51:07;;;;;;;26.10;21.85;;;;;;;;;;10272075;28;20092;-55
2022/03/06 22:56:08;;;;;;;23.50;20.05;;;;;;;;;;10271447;28;20068;-52
2022/03/06 23:01:20;;;;;;;26.42;21.65;;;;;;;;;;10285129;28;20076;-51
2022/03/06 23:11:34;;;;;;;18.45;16.30;;;;;;;;;;10267707;28;20159;-54
2022/03/06 23:16:34;;;;;;;18.30;15.45;;;;;;;;;;10272068;28;20068;-55
2022/03/06 23:21:32;;;;;;;18.15;15.48;;;;;;;;;;10266084;28;20141;-56
2022/03/06 23:26:30;;;;;;;18.48;14.77;;;;;;;;;;10270109;28;20081;-56
2022/03/06 23:31:29;;;;;;;15.05;13.10;;;;;;;;;;10269040;28;20589;-53
2022/03/06 23:36:28;;;;;;;20.98;16.67;;;;;;;;;;10268070;28;20120;-54
2022/03/06 23:41:27;;;;;;;19.77;17.65;;;;;;;;;;10269868;28;20092;-54
2022/03/06 23:46:25;;;;;;;16.85;15.07;;;;;;;;;;10269747;28;20081;-57
2022/03/06 23:51:23;;;;;;;17.13;15.38;;;;;;;;;;10269045;28;20072;-54
2022/03/06 23:56:26;;;;;;;15.20;12.55;;;;;;;;;;10268023;28;20073;-53
